createdAt,value
2022-08-22T00:01:02.381Z,97933.00
2022-08-22T00:02:58.998Z,97946.00
2022-08-22T00:02:59.714Z,97933.00
2022-08-22T00:03:02.619Z,97932.00
2022-08-22T00:03:09.413Z,97940.00
2022-08-22T00:04:07.864Z,97937.00
2022-08-22T00:07:04.513Z,97929.00
2022-08-22T00:10:25.201Z,97931.00
2022-08-22T00:13:27.944Z,97928.00
2022-08-22T00:16:14.603Z,97935.00
2022-08-22T00:19:20.954Z,97939.00
2022-08-22T00:22:24.355Z,97930.00
2022-08-22T00:25:27.070Z,97933.00
2022-08-22T00:28:21.390Z,97924.00
2022-08-22T00:31:17.356Z,97918.00
2022-08-22T00:34:10.942Z,97924.00
2022-08-22T00:37:24.276Z,97920.00
2022-08-22T00:40:31.101Z,97917.00
2022-08-22T00:43:53.460Z,97911.00
2022-08-22T00:46:52.881Z,97909.00
2022-08-22T00:49:58.597Z,97911.00
2022-08-22T00:53:26.452Z,97912.00
2022-08-22T00:56:39.669Z,97914.00
2022-08-22T01:00:09.003Z,97916.00
2022-08-22T01:03:21.604Z,97919.00
2022-08-22T01:06:19.081Z,97923.00
2022-08-22T01:09:16.738Z,97913.00
2022-08-22T01:12:24.401Z,97903.00
2022-08-22T01:15:09.589Z,97907.00
2022-08-22T01:18:11.148Z,97901.00
2022-08-22T01:21:31.313Z,97907.00
2022-08-22T01:24:20.261Z,97909.00
2022-08-22T01:27:29.849Z,97905.00
2022-08-22T01:30:32.300Z,97914.00
2022-08-22T01:33:57.776Z,97902.00
2022-08-22T01:36:46.722Z,97904.00
2022-08-22T01:39:59.936Z,97904.00
2022-08-22T01:42:50.493Z,97910.00
2022-08-22T01:46:12.443Z,97908.00
2022-08-22T01:49:25.384Z,97909.00
2022-08-22T01:52:43.027Z,97912.00
2022-08-22T01:55:32.918Z,97925.00
2022-08-22T01:58:22.474Z,97919.00
2022-08-22T02:01:44.151Z,97917.00
2022-08-22T02:05:07.734Z,97913.00
2022-08-22T02:08:21.984Z,97915.00
2022-08-22T02:11:11.815Z,97913.00
2022-08-22T02:14:17.438Z,97913.00
2022-08-22T02:17:19.258Z,97918.00
2022-08-22T02:20:37.717Z,97908.00
2022-08-22T02:23:30.776Z,97916.00
2022-08-22T02:26:20.385Z,97918.00
2022-08-22T02:29:21.533Z,97925.00
2022-08-22T02:32:41.437Z,97920.00
2022-08-22T02:35:55.556Z,97910.00
2022-08-22T02:38:48.324Z,97913.00
2022-08-22T02:41:36.171Z,97909.00
2022-08-22T02:44:37.512Z,97914.00
2022-08-22T02:47:26.012Z,97904.00
2022-08-22T02:50:12.920Z,97900.00
2022-08-22T02:53:13.074Z,97903.00
2022-08-22T02:56:06.642Z,97897.00
2022-08-22T02:59:26.945Z,97893.00
2022-08-22T03:02:44.385Z,97897.00
2022-08-22T03:05:48.427Z,97893.00
2022-08-22T03:08:34.261Z,97893.00
2022-08-22T03:11:27.022Z,97902.00
2022-08-22T03:14:41.326Z,97895.00
2022-08-22T03:17:30.624Z,97896.00
2022-08-22T03:20:35.669Z,97900.00
2022-08-22T03:23:53.525Z,97896.00
2022-08-22T03:27:02.199Z,97893.00
2022-08-22T03:29:47.935Z,97892.00
2022-08-22T03:32:50.261Z,97897.00
2022-08-22T03:35:47.303Z,97899.00
2022-08-22T03:38:50.835Z,97900.00
2022-08-22T03:41:59.392Z,97901.00
2022-08-22T03:45:08.401Z,97903.00
2022-08-22T03:48:14.956Z,97898.00
2022-08-22T03:51:23.858Z,97897.00
2022-08-22T03:54:38.415Z,97891.00
2022-08-22T03:57:58.121Z,97898.00
2022-08-22T04:01:16.743Z,97903.00
2022-08-22T04:04:10.664Z,97897.00
2022-08-22T04:07:16.996Z,97906.00
2022-08-22T04:10:31.746Z,97917.00
2022-08-22T04:13:21.382Z,97910.00
2022-08-22T04:16:24.524Z,97920.00
2022-08-22T04:19:08.331Z,97917.00
2022-08-22T04:21:49.216Z,97921.00
2022-08-22T04:24:52.100Z,97915.00
2022-08-22T04:28:11.830Z,97908.00
2022-08-22T04:31:06.691Z,97923.00
2022-08-22T04:34:04.037Z,97926.00
2022-08-22T04:36:54.309Z,97924.00
2022-08-22T04:39:48.241Z,97921.00
2022-08-22T04:42:35.475Z,97926.00
2022-08-22T04:45:22.440Z,97923.00
2022-08-22T04:48:11.057Z,97928.00
2022-08-22T04:50:55.322Z,97931.00
2022-08-22T04:53:48.524Z,97932.00
2022-08-22T04:56:51.174Z,97932.00
2022-08-22T04:59:26.471Z,97934.00
2022-08-22T05:02:09.982Z,97936.00
2022-08-22T05:05:13.672Z,97937.00
2022-08-22T05:07:58.785Z,97944.00
2022-08-22T05:10:40.716Z,97941.00
2022-08-22T05:13:34.451Z,97948.00
2022-08-22T05:16:23.713Z,97946.00
2022-08-22T05:19:07.092Z,97943.00
2022-08-22T05:21:43.673Z,97945.00
2022-08-22T05:24:45.016Z,97942.00
2022-08-22T05:27:28.859Z,97938.00
2022-08-22T05:30:11.668Z,97954.00
2022-08-22T05:32:54.416Z,97943.00
2022-08-22T05:35:37.880Z,97948.00
2022-08-22T05:38:16.164Z,97949.00
2022-08-22T05:40:59.607Z,97954.00
2022-08-22T05:43:42.844Z,97949.00
2022-08-22T05:46:39.932Z,97950.00
2022-08-22T05:49:34.379Z,97957.00
2022-08-22T05:52:42.721Z,97959.00
2022-08-22T05:55:28.865Z,97944.00
2022-08-22T05:58:45.907Z,97951.00
2022-08-22T06:01:31.330Z,97953.00
2022-08-22T06:04:31.526Z,97949.00
2022-08-22T06:07:08.189Z,97949.00
2022-08-22T06:10:07.704Z,97949.00
2022-08-22T06:13:00.789Z,97952.00
2022-08-22T06:15:51.870Z,97939.00
2022-08-22T06:18:29.179Z,97947.00
2022-08-22T06:21:12.278Z,97951.00
2022-08-22T06:23:56.939Z,97944.00
2022-08-22T06:26:38.510Z,97955.00
2022-08-22T06:29:29.353Z,97945.00
2022-08-22T06:32:17.017Z,97946.00
2022-08-22T06:35:29.439Z,97951.00
2022-08-22T06:38:04.534Z,97952.00
2022-08-22T06:40:41.305Z,97954.00
2022-08-22T06:43:17.501Z,97954.00
2022-08-22T06:45:53.437Z,97951.00
2022-08-22T06:48:28.702Z,97947.00
2022-08-22T06:51:07.275Z,97949.00
2022-08-22T06:53:55.940Z,97951.00
2022-08-22T06:56:46.696Z,97959.00
2022-08-22T06:59:29.574Z,97957.00
2022-08-22T07:02:21.092Z,97964.00
2022-08-22T07:04:56.753Z,97968.00
2022-08-22T07:07:32.070Z,97970.00
2022-08-22T07:10:11.415Z,97975.00
2022-08-22T07:12:51.793Z,97976.00
2022-08-22T07:15:41.606Z,97975.00
2022-08-22T07:18:21.869Z,97960.00
2022-08-22T07:21:04.558Z,97962.00
2022-08-22T07:23:48.094Z,97972.00
2022-08-22T07:26:29.274Z,97968.00
2022-08-22T07:29:17.021Z,97958.00
2022-08-22T07:32:10.776Z,97954.00
2022-08-22T07:35:08.401Z,97961.00
2022-08-22T07:38:14.251Z,97971.00
2022-08-22T07:41:15.898Z,97973.00
2022-08-22T07:44:06.978Z,97970.00
2022-08-22T07:47:09.604Z,97968.00
2022-08-22T07:49:59.079Z,97980.00
2022-08-22T07:52:43.125Z,97972.00
2022-08-22T07:55:24.954Z,97977.00
2022-08-22T07:58:04.635Z,97975.00
2022-08-22T08:00:46.854Z,97969.00
2022-08-22T08:03:25.354Z,97974.00
2022-08-22T08:06:01.961Z,97972.00
2022-08-22T08:08:44.428Z,97980.00
2022-08-22T08:11:22.663Z,97986.00
2022-08-22T08:14:02.144Z,97987.00
2022-08-22T08:17:02.628Z,97987.00
2022-08-22T08:19:42.524Z,97988.00
2022-08-22T08:22:24.152Z,97984.00
2022-08-22T08:25:00.366Z,97990.00
2022-08-22T08:27:56.926Z,97987.00
2022-08-22T08:30:52.700Z,97985.00
2022-08-22T08:33:31.631Z,97978.00
2022-08-22T08:36:33.083Z,97985.00
2022-08-22T08:39:48.510Z,97981.00
2022-08-22T08:43:16.414Z,97986.00
2022-08-22T08:46:14.755Z,97982.00
2022-08-22T08:49:25.205Z,97981.00
2022-08-22T08:52:24.402Z,97977.00
2022-08-22T08:55:37.099Z,97973.00
2022-08-22T08:58:41.074Z,97973.00
2022-08-22T09:01:50.200Z,97965.00
2022-08-22T09:04:55.073Z,97967.00
2022-08-22T09:07:36.144Z,97972.00
2022-08-22T09:10:21.354Z,97956.00
2022-08-22T09:13:41.616Z,97958.00
2022-08-22T09:16:48.107Z,97962.00
2022-08-22T09:20:15.496Z,97960.00
2022-08-22T09:23:24.066Z,97963.00
2022-08-22T09:26:18.892Z,97963.00
2022-08-22T09:29:18.225Z,97958.00
2022-08-22T09:32:14.168Z,97957.00
2022-08-22T09:35:23.718Z,97952.00
2022-08-22T09:42:00.853Z,97953.00
2022-08-22T09:44:50.380Z,97965.00
2022-08-22T09:47:39.840Z,97960.00
2022-08-22T09:50:24.756Z,97958.00
2022-08-22T09:53:35.656Z,97961.00
2022-08-22T09:56:21.535Z,97961.00
2022-08-22T09:59:29.684Z,97954.00
2022-08-22T10:02:43.461Z,97959.00
2022-08-22T10:05:45.011Z,97962.00
2022-08-22T10:08:33.541Z,97956.00
2022-08-22T10:11:23.002Z,97952.00
2022-08-22T10:14:15.767Z,97948.00
2022-08-22T10:17:09.409Z,97952.00
2022-08-22T10:20:04.505Z,97956.00
2022-08-22T10:23:04.361Z,97956.00
2022-08-22T10:25:49.933Z,97954.00
2022-08-22T10:28:37.787Z,97941.00
2022-08-22T10:31:58.980Z,97935.00
2022-08-22T10:34:45.700Z,97934.00
2022-08-22T10:37:46.176Z,97929.00
2022-08-22T10:40:38.490Z,97934.00
2022-08-22T10:43:29.103Z,97936.00
2022-08-22T10:46:16.214Z,97931.00
2022-08-22T10:48:59.842Z,97929.00
2022-08-22T10:51:53.882Z,97932.00
2022-08-22T10:54:52.601Z,97928.00
2022-08-22T10:57:33.447Z,97913.00
2022-08-22T11:00:26.846Z,97910.00
2022-08-22T11:03:43.754Z,97908.00
2022-08-22T11:06:52.231Z,97906.00
2022-08-22T11:09:49.518Z,97911.00
2022-08-22T11:12:41.738Z,97907.00
2022-08-22T11:15:45.245Z,97900.00
2022-08-22T11:18:57.885Z,97911.00
2022-08-22T11:21:55.262Z,97913.00
2022-08-22T11:25:04.021Z,97905.00
2022-08-22T11:28:17.670Z,97906.00
2022-08-22T11:31:23.636Z,97903.00
2022-08-22T11:34:28.204Z,97893.00
2022-08-22T11:37:56.467Z,97906.00
2022-08-22T11:41:19.166Z,97901.00
2022-08-22T11:44:18.077Z,97892.00
2022-08-22T11:46:57.233Z,97895.00
2022-08-22T11:49:50.426Z,97883.00
2022-08-22T11:53:17.062Z,97884.00
2022-08-22T11:56:42.899Z,97880.00
2022-08-22T11:59:56.109Z,97882.00
2022-08-22T12:03:05.879Z,97883.00
2022-08-22T12:06:08.866Z,97877.00
2022-08-22T12:09:25.422Z,97878.00
2022-08-22T12:12:15.284Z,97870.00
2022-08-22T12:15:21.455Z,97873.00
2022-08-22T12:18:43.814Z,97873.00
2022-08-22T12:21:47.083Z,97871.00
2022-08-22T12:24:41.772Z,97872.00
2022-08-22T12:28:15.751Z,97872.00
2022-08-22T12:31:02.988Z,97865.00
2022-08-22T12:34:03.962Z,97865.00
2022-08-22T12:37:15.833Z,97860.00
2022-08-22T12:40:43.593Z,97870.00
2022-08-22T12:44:06.894Z,97864.00
2022-08-22T12:47:09.481Z,97860.00
2022-08-22T12:50:03.649Z,97855.00
2022-08-22T12:53:21.622Z,97864.00
2022-08-22T12:56:41.966Z,97849.00
2022-08-22T12:59:32.240Z,97842.00
2022-08-22T13:02:24.662Z,97847.00
2022-08-22T13:05:13.719Z,97849.00
2022-08-22T13:08:04.705Z,97842.00
2022-08-22T13:10:58.398Z,97846.00
2022-08-22T13:13:42.010Z,97843.00
2022-08-22T13:16:19.821Z,97846.00
2022-08-22T13:19:07.781Z,97842.00
2022-08-22T13:22:13.281Z,97842.00
2022-08-22T13:25:06.336Z,97841.00
2022-08-22T13:27:50.584Z,97836.00
2022-08-22T13:30:41.356Z,97836.00
2022-08-22T13:33:36.252Z,97833.00
2022-08-22T13:36:18.662Z,97837.00
2022-08-22T13:39:05.104Z,97838.00
2022-08-22T13:41:53.159Z,97845.00
2022-08-22T13:44:35.478Z,97838.00
2022-08-22T13:47:21.190Z,97841.00
2022-08-22T13:50:19.219Z,97832.00
2022-08-22T13:53:04.410Z,97838.00
2022-08-22T13:55:51.658Z,97827.00
2022-08-22T13:58:39.569Z,97841.00
2022-08-22T14:01:33.575Z,97829.00
2022-08-22T14:04:34.669Z,97827.00
2022-08-22T14:07:11.213Z,97831.00
2022-08-22T14:10:14.951Z,97827.00
2022-08-22T14:13:26.925Z,97828.00
2022-08-22T14:16:19.967Z,97835.00
2022-08-22T14:19:08.978Z,97823.00
2022-08-22T14:22:08.082Z,97821.00
2022-08-22T14:24:58.970Z,97822.00
2022-08-22T14:27:53.875Z,97820.00
2022-08-22T14:30:49.364Z,97819.00
2022-08-22T14:33:45.097Z,97811.00
2022-08-22T14:36:46.404Z,97813.00
2022-08-22T14:39:37.041Z,97811.00
2022-08-22T14:42:26.637Z,97812.00
2022-08-22T14:45:24.140Z,97816.00
2022-08-22T14:48:30.301Z,97816.00
2022-08-22T14:51:26.397Z,97816.00
2022-08-22T14:54:21.354Z,97820.00
2022-08-22T14:56:59.418Z,97812.00
2022-08-22T14:59:43.385Z,97811.00
2022-08-22T15:02:33.048Z,97804.00
2022-08-22T15:05:19.741Z,97802.00
2022-08-22T15:07:59.385Z,97799.00
2022-08-22T15:10:37.376Z,97795.00
2022-08-22T15:13:25.212Z,97800.00
2022-08-22T15:16:18.516Z,97798.00
2022-08-22T15:18:53.686Z,97786.00
2022-08-22T15:21:32.812Z,97793.00
2022-08-22T15:24:13.847Z,97791.00
2022-08-22T15:26:55.449Z,97791.00
2022-08-22T15:29:36.733Z,97784.00
2022-08-22T15:32:12.124Z,97786.00
2022-08-22T15:34:52.354Z,97784.00
2022-08-22T15:37:32.437Z,97789.00
2022-08-22T15:40:29.772Z,97785.00
2022-08-22T15:43:35.003Z,97791.00
2022-08-22T15:46:17.877Z,97790.00
2022-08-22T15:48:59.595Z,97781.00
2022-08-22T15:52:03.166Z,97780.00
2022-08-22T15:54:53.250Z,97771.00
2022-08-22T15:57:41.701Z,97782.00
2022-08-22T16:00:28.670Z,97779.00
2022-08-22T16:03:31.936Z,97779.00
2022-08-22T16:06:10.586Z,97774.00
2022-08-22T16:08:51.616Z,97772.00
2022-08-22T16:11:38.561Z,97781.00
2022-08-22T16:14:34.648Z,97790.00
2022-08-22T16:17:28.977Z,97771.00
2022-08-22T16:20:19.355Z,97781.00
2022-08-22T16:22:58.261Z,97781.00
2022-08-22T16:25:45.522Z,97782.00
2022-08-22T16:28:47.764Z,97785.00
2022-08-22T16:31:28.440Z,97784.00
2022-08-22T16:34:26.126Z,97778.00
2022-08-22T16:37:19.442Z,97775.00
2022-08-22T16:40:09.242Z,97782.00
2022-08-22T16:43:15.073Z,97776.00
2022-08-22T16:45:50.122Z,97776.00
2022-08-22T16:48:33.583Z,97774.00
2022-08-22T16:51:18.597Z,97775.00
2022-08-22T16:54:08.875Z,97778.00
2022-08-22T16:57:05.551Z,97778.00
2022-08-22T17:00:27.336Z,97778.00
2022-08-22T17:03:32.104Z,97774.00
2022-08-22T17:06:41.131Z,97779.00
2022-08-22T17:09:40.335Z,97773.00
2022-08-22T17:12:52.511Z,97782.00
2022-08-22T17:15:33.376Z,97782.00
2022-08-22T17:18:22.129Z,97788.00
2022-08-22T17:21:14.260Z,97786.00
2022-08-22T17:24:06.413Z,97791.00
2022-08-22T17:26:58.893Z,97792.00
2022-08-22T17:30:10.347Z,97794.00
2022-08-22T17:33:27.970Z,97788.00
2022-08-22T17:36:30.856Z,97800.00
2022-08-22T17:39:38.009Z,97801.00
2022-08-22T17:42:49.854Z,97803.00
2022-08-22T17:46:18.213Z,97797.00
2022-08-22T17:49:53.612Z,97805.00
2022-08-22T17:52:54.641Z,97806.00
2022-08-22T17:56:00.804Z,97813.00
2022-08-22T17:58:48.544Z,97817.00
2022-08-22T18:01:47.898Z,97813.00
2022-08-22T18:04:49.163Z,97816.00
2022-08-22T18:08:00.389Z,97819.00
2022-08-22T18:10:59.991Z,97825.00
2022-08-22T18:14:07.106Z,97816.00
2022-08-22T18:16:42.141Z,97823.00
2022-08-22T18:20:00.678Z,97827.00
2022-08-22T18:23:35.620Z,97823.00
2022-08-22T18:26:41.817Z,97828.00
2022-08-22T18:29:51.411Z,97837.00
2022-08-22T18:32:57.946Z,97842.00
2022-08-22T18:36:11.421Z,97835.00
2022-08-22T18:39:13.961Z,97837.00
2022-08-22T18:41:57.020Z,97840.00
2022-08-22T18:44:37.654Z,97844.00
2022-08-22T18:47:32.570Z,97842.00
2022-08-22T18:50:34.130Z,97844.00
2022-08-22T18:53:45.119Z,97846.00
2022-08-22T18:56:54.587Z,97846.00
2022-08-22T18:59:46.618Z,97852.00
2022-08-22T19:02:48.115Z,97855.00
2022-08-22T19:05:50.063Z,97862.00
2022-08-22T19:08:33.738Z,97858.00
2022-08-22T19:11:20.579Z,97862.00
2022-08-22T19:14:23.368Z,97864.00
2022-08-22T19:17:28.474Z,97866.00
2022-08-22T19:20:52.921Z,97862.00
2022-08-22T19:23:43.595Z,97866.00
2022-08-22T19:26:33.665Z,97867.00
2022-08-22T19:29:15.916Z,97872.00
2022-08-22T19:31:58.019Z,97873.00
2022-08-22T19:34:36.807Z,97874.00
2022-08-22T19:37:30.523Z,97878.00
2022-08-22T19:40:11.570Z,97874.00
2022-08-22T19:42:49.819Z,97870.00
2022-08-22T19:45:28.855Z,97871.00
2022-08-22T19:48:13.888Z,97867.00
2022-08-22T19:51:08.497Z,97873.00
2022-08-22T19:53:53.262Z,97876.00
2022-08-22T19:56:41.089Z,97874.00
2022-08-22T19:59:46.759Z,97873.00
2022-08-22T20:02:50.234Z,97883.00
2022-08-22T20:05:56.632Z,97878.00
2022-08-22T20:08:41.019Z,97875.00
2022-08-22T20:11:28.175Z,97878.00
2022-08-22T20:14:36.907Z,97884.00
2022-08-22T20:17:23.904Z,97884.00
2022-08-22T20:20:18.366Z,97886.00
2022-08-22T20:23:20.528Z,97885.00
2022-08-22T20:25:57.092Z,97892.00
2022-08-22T20:28:48.864Z,97890.00
2022-08-22T20:31:27.225Z,97894.00
2022-08-22T20:34:14.782Z,97897.00
2022-08-22T20:36:59.714Z,97901.00
2022-08-22T20:40:55.497Z,97904.00
2022-08-22T20:43:38.866Z,97902.00
2022-08-22T20:46:38.172Z,97903.00
2022-08-22T20:49:32.772Z,97906.00
2022-08-22T20:52:33.441Z,97906.00
2022-08-22T20:55:17.021Z,97907.00
2022-08-22T20:58:02.565Z,97917.00
2022-08-22T21:00:47.495Z,97917.00
2022-08-22T21:03:44.575Z,97912.00
2022-08-22T21:06:31.402Z,97908.00
2022-08-22T21:09:39.410Z,97907.00
2022-08-22T21:12:15.170Z,97910.00
2022-08-22T21:14:50.200Z,97907.00
2022-08-22T21:17:35.515Z,97908.00
2022-08-22T21:20:21.529Z,97919.00
2022-08-22T21:23:03.046Z,97912.00
2022-08-22T21:26:00.738Z,97915.00
2022-08-22T21:29:12.865Z,97915.00
2022-08-22T21:31:56.179Z,97920.00
2022-08-22T21:34:45.937Z,97920.00
2022-08-22T21:37:39.832Z,97911.00
2022-08-22T21:40:37.949Z,97916.00
2022-08-22T21:43:34.497Z,97914.00
2022-08-22T21:46:09.450Z,97923.00
2022-08-22T21:49:04.642Z,97923.00
2022-08-22T21:51:44.033Z,97926.00
2022-08-22T21:54:25.153Z,97929.00
2022-08-22T21:57:17.826Z,97935.00
2022-08-22T21:59:59.779Z,97940.00
2022-08-22T22:02:43.857Z,97931.00
2022-08-22T22:05:19.086Z,97935.00
2022-08-22T22:07:54.023Z,97938.00
2022-08-22T22:10:29.219Z,97933.00
2022-08-22T22:13:05.133Z,97944.00
2022-08-22T22:15:44.328Z,97947.00
2022-08-22T22:18:26.359Z,97944.00
2022-08-22T22:21:01.790Z,97944.00
2022-08-22T22:23:36.778Z,97944.00
2022-08-22T22:26:13.839Z,97941.00
2022-08-22T22:28:50.106Z,97943.00
2022-08-22T22:31:24.993Z,97940.00
2022-08-22T22:33:59.921Z,97942.00
2022-08-22T22:36:35.606Z,97947.00
2022-08-22T22:39:11.221Z,97954.00
2022-08-22T22:41:46.185Z,97956.00
2022-08-22T22:44:22.185Z,97959.00
2022-08-22T22:47:02.044Z,97958.00
2022-08-22T22:49:37.016Z,97964.00
2022-08-22T22:52:11.954Z,97961.00
2022-08-22T22:54:46.904Z,97967.00
2022-08-22T22:57:25.530Z,97969.00
2022-08-22T23:00:01.198Z,97971.00
2022-08-22T23:02:36.185Z,97975.00
2022-08-22T23:05:11.753Z,97974.00
2022-08-22T23:07:46.699Z,97970.00
2022-08-22T23:10:22.297Z,97976.00
2022-08-22T23:12:58.540Z,97974.00
2022-08-22T23:15:33.547Z,97974.00
2022-08-22T23:18:08.453Z,97972.00
2022-08-22T23:20:43.386Z,97975.00
2022-08-22T23:23:18.393Z,97978.00
2022-08-22T23:25:53.363Z,97981.00
2022-08-22T23:28:28.284Z,97980.00
2022-08-22T23:31:35.267Z,97982.00
2022-08-22T23:34:15.444Z,97988.00
2022-08-22T23:36:53.455Z,97991.00
2022-08-22T23:39:31.002Z,97989.00
2022-08-22T23:42:09.779Z,97985.00
2022-08-22T23:44:45.904Z,97987.00
2022-08-22T23:47:20.978Z,97981.00
2022-08-22T23:49:55.921Z,97986.00
2022-08-22T23:52:30.889Z,97983.00
2022-08-22T23:55:07.014Z,97985.00
2022-08-22T23:57:41.963Z,97982.00
